Time;durP1;ratioP1;P1;durP2;ratioP2;P2;SDS_P1;SDS_P2;PMS_P1;PMS_P2;Temp;Humidity;BMP_temperature;BMP_pressure;BME280_temperature;BME280_humidity;BME280_pressure;Samples;Min_cycle;Max_cycle;Signal;HPM_P1;HPM_P2
2021/05/15 00:02:20;;;;;;;4.30;2.33;;;23.00;49.40;;;;;;4984510;28;20408;-86
2021/05/15 00:04:46;;;;;;;4.83;2.60;;;23.00;49.70;;;;;;4999924;28;20428;-86
2021/05/15 00:07:21;;;;;;;4.17;2.33;;;23.00;49.30;;;;;;5016753;28;20396;-85
2021/05/15 00:09:56;;;;;;;5.10;2.07;;;23.10;49.30;;;;;;5000213;28;20415;-85
2021/05/15 00:12:22;;;;;;;4.10;2.00;;;23.00;49.30;;;;;;4998497;28;20444;-84
2021/05/15 00:14:53;;;;;;;4.23;2.10;;;23.00;49.60;;;;;;5017709;28;20431;-84
2021/05/15 00:17:44;;;;;;;4.70;2.47;;;23.00;49.30;;;;;;4959504;28;20412;-85
2021/05/15 00:20:15;;;;;;;5.07;2.27;;;23.00;49.50;;;;;;4999553;28;20486;-84
2021/05/15 00:22:45;;;;;;;4.03;2.40;;;23.00;49.50;;;;;;4984252;28;20429;-85
2021/05/15 00:25:13;;;;;;;4.77;2.77;;;23.00;49.40;;;;;;4999433;28;20409;-84
2021/05/15 00:27:41;;;;;;;3.30;2.10;;;23.00;50.00;;;;;;4981152;28;20478;-85
2021/05/15 00:30:10;;;;;;;4.63;2.10;;;23.00;49.50;;;;;;4997677;28;20439;-85
2021/05/15 00:32:43;;;;;;;4.67;2.40;;;22.90;49.30;;;;;;4980729;28;20475;-85
2021/05/15 00:35:15;;;;;;;4.60;1.70;;;23.00;49.50;;;;;;4995296;28;20737;-85
2021/05/15 00:37:45;;;;;;;4.67;2.20;;;23.00;49.50;;;;;;4979835;28;20439;-85
2021/05/15 00:40:20;;;;;;;5.03;2.27;;;23.00;49.60;;;;;;5015498;28;20520;-84
2021/05/15 00:42:47;;;;;;;4.10;2.20;;;23.00;49.40;;;;;;5000013;28;20415;-85
2021/05/15 00:45:16;;;;;;;3.40;1.90;;;23.00;49.70;;;;;;4998881;28;20423;-85
2021/05/15 00:47:51;;;;;;;3.60;2.00;;;23.00;49.50;;;;;;5016917;28;20412;-84
2021/05/15 00:50:21;;;;;;;5.23;2.50;;;23.00;49.60;;;;;;4983682;28;20450;-85
2021/05/15 00:52:47;;;;;;;4.23;2.07;;;23.00;49.60;;;;;;4968914;28;20424;-85
2021/05/15 00:55:21;;;;;;;4.73;2.17;;;23.00;49.60;;;;;;5000807;28;20416;-85
2021/05/15 00:57:55;;;;;;;3.70;2.07;;;23.00;49.70;;;;;;5017714;28;20392;-84
2021/05/15 01:00:23;;;;;;;3.30;1.93;;;22.90;49.50;;;;;;5017060;28;20475;-85
2021/05/15 01:02:55;;;;;;;3.93;2.27;;;23.00;49.60;;;;;;5000100;28;20467;-84
2021/05/15 01:05:23;;;;;;;5.33;1.83;;;23.00;49.60;;;;;;5000303;28;20400;-85
2021/05/15 01:07:56;;;;;;;2.40;1.80;;;23.00;49.50;;;;;;5001107;28;20421;-84
2021/05/15 01:10:24;;;;;;;4.80;1.90;;;23.00;49.40;;;;;;4984806;28;20432;-86
2021/05/15 01:12:55;;;;;;;4.17;2.10;;;23.00;49.70;;;;;;4986061;28;20464;-85
2021/05/15 01:15:32;;;;;;;4.23;1.80;;;23.00;49.40;;;;;;5001646;28;20408;-85
2021/05/15 01:18:12;;;;;;;4.37;2.57;;;23.10;49.70;;;;;;5002782;28;20459;-85
2021/05/15 01:20:52;;;;;;;3.90;2.10;;;23.00;49.60;;;;;;5018738;28;20996;-85
2021/05/15 01:23:32;;;;;;;4.60;1.80;;;23.10;49.60;;;;;;5000627;28;20496;-86
2021/05/15 01:26:15;;;;;;;3.20;1.77;;;23.00;49.40;;;;;;5017260;28;20436;-84
2021/05/15 01:28:45;;;;;;;2.90;2.20;;;23.00;49.50;;;;;;5000662;28;20443;-85
2021/05/15 01:31:16;;;;;;;3.63;1.90;;;23.10;49.60;;;;;;5016388;28;20428;-86
2021/05/15 01:36:53;;;;;;;4.20;1.80;;;23.10;49.50;;;;;;5005172;28;20399;-85
2021/05/15 01:39:19;;;;;;;2.47;1.80;;;23.10;49.50;;;;;;5016430;28;20456;-85
2021/05/15 01:41:46;;;;;;;2.77;2.10;;;23.10;49.70;;;;;;4981786;28;20424;-86
2021/05/15 01:44:13;;;;;;;5.13;2.30;;;23.10;49.60;;;;;;4996371;28;20421;-85
2021/05/15 01:46:42;;;;;;;3.80;1.90;;;23.10;49.70;;;;;;4996114;28;20420;-85
2021/05/15 01:49:08;;;;;;;4.87;2.00;;;23.10;49.60;;;;;;4996812;28;20428;-85
2021/05/15 01:51:34;;;;;;;3.47;1.63;;;23.10;49.60;;;;;;4997061;28;20432;-85
2021/05/15 01:54:05;;;;;;;3.27;1.80;;;23.30;49.80;;;;;;5013605;28;20483;-85
2021/05/15 01:56:34;;;;;;;3.80;1.83;;;23.10;49.60;;;;;;4981716;28;20436;-86
2021/05/15 01:59:07;;;;;;;6.03;2.10;;;23.10;49.60;;;;;;4997318;28;20523;-85
2021/05/15 02:01:37;;;;;;;2.57;1.73;;;23.10;49.70;;;;;;5014121;28;20400;-84
2021/05/15 02:04:04;;;;;;;3.00;1.80;;;23.10;49.50;;;;;;4995717;28;20428;-84
2021/05/15 02:06:31;;;;;;;3.63;1.93;;;23.20;49.60;;;;;;4995727;28;20424;-84
2021/05/15 02:08:57;;;;;;;4.20;2.07;;;23.10;49.50;;;;;;4999659;28;20432;-84
2021/05/15 02:11:26;;;;;;;4.67;2.17;;;23.10;49.70;;;;;;4998112;28;20424;-84
2021/05/15 02:13:52;;;;;;;4.10;1.33;;;23.20;49.70;;;;;;4998365;28;20451;-85
2021/05/15 02:16:20;;;;;;;4.33;1.83;;;23.10;49.70;;;;;;4999101;28;20428;-84
2021/05/15 02:18:47;;;;;;;3.63;1.77;;;23.20;49.90;;;;;;4999231;28;20435;-85
2021/05/15 02:21:17;;;;;;;3.07;1.60;;;23.10;49.60;;;;;;4998150;28;20431;-85
2021/05/15 02:23:43;;;;;;;3.77;1.80;;;23.20;49.60;;;;;;4999185;28;20412;-85
2021/05/15 02:26:09;;;;;;;3.60;1.67;;;23.20;49.60;;;;;;4995628;28;20431;-85
2021/05/15 02:28:38;;;;;;;4.50;2.10;;;23.20;49.80;;;;;;4995528;28;20519;-85
2021/05/15 02:31:07;;;;;;;3.10;1.70;;;23.10;49.60;;;;;;4995832;28;20419;-85
2021/05/15 02:33:33;;;;;;;6.07;1.90;;;23.20;49.60;;;;;;4979532;28;20536;-85
2021/05/15 02:35:59;;;;;;;2.67;1.63;;;23.20;49.60;;;;;;4978983;28;20922;-85
2021/05/15 02:38:25;;;;;;;3.07;1.73;;;23.10;49.60;;;;;;4996151;28;20420;-85
2021/05/15 02:40:56;;;;;;;3.80;1.50;;;23.10;49.70;;;;;;4996075;28;20213;-85
2021/05/15 02:43:23;;;;;;;4.47;1.80;;;23.10;49.60;;;;;;4980185;28;20412;-85
2021/05/15 02:45:49;;;;;;;4.23;2.20;;;23.10;49.50;;;;;;4995531;28;20416;-85
2021/05/15 02:48:18;;;;;;;2.50;1.70;;;23.20;49.90;;;;;;4995898;28;20424;-85
2021/05/15 02:50:48;;;;;;;2.87;1.80;;;23.20;49.60;;;;;;4979281;28;20432;-85
2021/05/15 02:53:15;;;;;;;2.43;1.50;;;23.20;49.60;;;;;;4995360;28;20419;-85
2021/05/15 02:55:44;;;;;;;2.00;1.20;;;23.20;49.70;;;;;;5011978;28;20416;-85
2021/05/15 02:58:11;;;;;;;5.17;2.17;;;23.10;49.50;;;;;;4995324;28;20424;-85
2021/05/15 03:00:40;;;;;;;3.93;1.77;;;23.10;49.80;;;;;;4995862;28;20529;-85
2021/05/15 03:03:09;;;;;;;2.53;1.60;;;23.20;49.60;;;;;;4997075;28;20423;-85
2021/05/15 03:05:35;;;;;;;2.83;1.70;;;23.10;49.60;;;;;;4983187;28;20423;-85
2021/05/15 03:08:04;;;;;;;3.60;1.70;;;23.20;49.80;;;;;;4996649;28;20428;-85
2021/05/15 03:10:33;;;;;;;2.60;1.83;;;23.10;49.50;;;;;;4997524;28;20447;-85
2021/05/15 03:13:00;;;;;;;2.10;1.80;;;23.20;49.80;;;;;;5016040;28;20439;-86
2021/05/15 03:15:28;;;;;;;4.03;1.87;;;23.10;49.80;;;;;;4997540;28;20413;-84
2021/05/15 03:17:56;;;;;;;3.07;1.47;;;23.20;49.70;;;;;;4982173;28;20436;-84
2021/05/15 03:20:25;;;;;;;3.10;1.40;;;23.20;49.80;;;;;;4997058;28;20482;-84
2021/05/15 03:22:54;;;;;;;4.23;1.87;;;23.20;49.70;;;;;;4995745;28;20484;-84
2021/05/15 03:25:22;;;;;;;2.97;1.63;;;23.20;49.90;;;;;;4995844;28;20409;-84
2021/05/15 03:27:48;;;;;;;3.33;1.40;;;23.10;49.50;;;;;;4963826;28;20491;-85
2021/05/15 03:30:15;;;;;;;4.13;2.10;;;23.20;49.70;;;;;;4979070;28;20420;-85
2021/05/15 03:32:44;;;;;;;2.60;1.43;;;23.20;49.70;;;;;;5012596;28;20492;-85
2021/05/15 03:35:12;;;;;;;3.50;1.43;;;23.20;49.60;;;;;;4963006;28;20427;-85
2021/05/15 03:37:39;;;;;;;3.40;2.20;;;23.20;49.70;;;;;;4979428;28;20424;-85
2021/05/15 03:40:10;;;;;;;1.80;1.20;;;23.20;49.70;;;;;;4995973;28;20545;-85
2021/05/15 03:42:36;;;;;;;5.07;1.20;;;23.10;49.60;;;;;;4995397;28;20791;-85
2021/05/15 03:45:02;;;;;;;2.37;1.40;;;23.20;49.70;;;;;;5012839;28;20420;-85
2021/05/15 03:47:28;;;;;;;3.10;1.37;;;23.20;49.90;;;;;;4995220;28;20776;-85
2021/05/15 03:49:54;;;;;;;4.67;1.70;;;23.10;49.70;;;;;;4995886;28;20427;-85
2021/05/15 03:52:22;;;;;;;3.70;2.10;;;23.10;49.90;;;;;;4995342;28;20420;-86
2021/05/15 03:54:51;;;;;;;3.33;1.73;;;23.10;49.60;;;;;;5013053;28;20177;-84
2021/05/15 03:57:17;;;;;;;2.13;1.53;;;23.10;49.50;;;;;;5013845;28;20482;-84
2021/05/15 03:59:43;;;;;;;3.17;1.57;;;23.10;49.70;;;;;;5014116;28;20464;-85
2021/05/15 04:02:09;;;;;;;3.20;1.80;;;23.10;49.90;;;;;;5015545;28;20185;-84
2021/05/15 04:04:37;;;;;;;4.13;1.40;;;23.10;49.90;;;;;;4995443;28;20275;-85
2021/05/15 04:07:04;;;;;;;2.80;1.60;;;23.10;50.00;;;;;;5014081;28;20169;-83
2021/05/15 04:09:29;;;;;;;3.57;1.80;;;23.10;49.70;;;;;;4996701;28;20419;-85
2021/05/15 04:11:55;;;;;;;1.73;0.97;;;23.10;50.00;;;;;;5013244;28;20420;-85
2021/05/15 04:14:32;;;;;;;2.67;1.80;;;23.10;50.00;;;;;;4999405;28;20187;-85
2021/05/15 04:19:27;;;;;;;2.10;1.37;;;22.90;49.60;;;;;;5015030;28;20535;-85
2021/05/15 04:21:53;;;;;;;1.83;1.40;;;23.10;49.70;;;;;;5016107;28;20408;-85
2021/05/15 04:24:24;;;;;;;3.70;1.63;;;23.20;49.90;;;;;;4998244;28;20439;-85
2021/05/15 04:26:54;;;;;;;2.20;1.30;;;23.10;49.60;;;;;;5015640;28;20404;-85
2021/05/15 04:29:25;;;;;;;2.03;1.33;;;23.10;49.60;;;;;;4998262;28;20454;-85
2021/05/15 04:31:58;;;;;;;3.30;1.70;;;23.10;49.70;;;;;;5015450;28;20444;-85
2021/05/15 04:34:25;;;;;;;2.10;1.47;;;23.10;49.80;;;;;;5014631;28;20399;-85
2021/05/15 04:36:52;;;;;;;2.80;1.40;;;23.10;49.80;;;;;;5016205;28;20428;-86
2021/05/15 04:39:18;;;;;;;2.37;1.30;;;23.10;49.90;;;;;;5016434;28;20483;-85
2021/05/15 04:41:44;;;;;;;2.03;1.50;;;23.10;49.80;;;;;;4999223;28;20483;-84
2021/05/15 04:44:10;;;;;;;2.30;1.30;;;23.10;49.80;;;;;;4998624;28;20420;-85
2021/05/15 04:46:36;;;;;;;2.10;1.47;;;23.10;49.70;;;;;;5017016;28;20408;-85
2021/05/15 04:49:02;;;;;;;3.00;1.47;;;23.10;49.80;;;;;;5016703;28;20451;-85
2021/05/15 04:51:28;;;;;;;1.53;1.30;;;23.20;49.90;;;;;;4998293;28;20272;-84
2021/05/15 04:53:57;;;;;;;2.03;1.40;;;23.10;49.90;;;;;;5019132;28;20165;-85
2021/05/15 04:56:23;;;;;;;3.40;1.60;;;23.10;50.00;;;;;;5017115;28;20596;-85
2021/05/15 04:58:49;;;;;;;1.93;1.27;;;23.10;49.90;;;;;;5014819;28;20477;-84
2021/05/15 05:01:14;;;;;;;2.60;1.40;;;23.00;49.80;;;;;;4996802;28;20184;-84
2021/05/15 05:03:40;;;;;;;3.83;1.50;;;23.10;49.60;;;;;;4997664;28;20188;-86
2021/05/15 05:06:06;;;;;;;3.80;1.60;;;23.10;49.90;;;;;;4996809;28;20181;-85
2021/05/15 05:08:34;;;;;;;2.20;1.57;;;23.10;49.70;;;;;;4996297;28;20196;-86
2021/05/15 05:11:00;;;;;;;2.07;1.40;;;23.20;49.70;;;;;;4996665;28;20184;-85
2021/05/15 05:16:55;;;;;;;2.13;1.20;;;23.20;49.60;;;;;;4972122;28;20432;-85
2021/05/15 05:19:25;;;;;;;1.80;1.20;;;23.10;49.90;;;;;;4972049;29;20484;-85
2021/05/15 05:21:52;;;;;;;2.17;1.30;;;23.10;49.80;;;;;;4972698;29;20438;-85
2021/05/15 05:24:19;;;;;;;3.40;1.30;;;23.10;49.70;;;;;;4957294;29;20410;-87
2021/05/15 05:26:45;;;;;;;2.80;1.33;;;23.20;49.80;;;;;;4971247;28;20544;-85
2021/05/15 05:29:16;;;;;;;2.60;1.53;;;23.20;49.80;;;;;;4952101;29;20446;-86
2021/05/15 05:31:44;;;;;;;3.03;1.30;;;23.20;50.10;;;;;;4968038;29;20418;-85
2021/05/15 05:34:11;;;;;;;1.40;1.13;;;23.20;49.80;;;;;;4969275;29;20425;-85
2021/05/15 05:36:38;;;;;;;2.10;1.20;;;23.20;49.80;;;;;;4953499;29;20430;-84
2021/05/15 05:39:09;;;;;;;1.87;1.30;;;23.20;49.80;;;;;;4949898;29;20461;-85
2021/05/15 05:41:35;;;;;;;2.53;1.30;;;23.20;49.70;;;;;;4933906;29;20415;-85
2021/05/15 05:44:04;;;;;;;3.07;1.70;;;23.20;49.70;;;;;;4962083;29;20429;-85
2021/05/15 05:46:29;;;;;;;2.83;1.40;;;23.20;49.70;;;;;;4936329;29;20455;-85
2021/05/15 05:48:55;;;;;;;3.40;1.77;;;23.20;49.90;;;;;;4938778;29;20445;-85
2021/05/15 05:51:21;;;;;;;1.70;1.20;;;23.20;50.00;;;;;;4969554;29;20178;-85
2021/05/15 05:53:47;;;;;;;2.20;1.20;;;23.20;49.80;;;;;;4982553;28;20177;-85
2021/05/15 05:56:12;;;;;;;1.90;1.23;;;23.20;49.70;;;;;;5010538;28;20201;-85
2021/05/15 05:58:38;;;;;;;2.10;1.20;;;23.20;49.80;;;;;;4992952;28;20204;-84
2021/05/15 06:01:04;;;;;;;1.20;1.00;;;23.20;50.00;;;;;;4992518;28;20208;-85
2021/05/15 06:03:31;;;;;;;1.77;1.10;;;23.20;49.70;;;;;;5010270;28;20177;-85
2021/05/15 06:05:57;;;;;;;1.20;1.10;;;23.30;49.80;;;;;;4993486;28;20180;-86
2021/05/15 06:08:22;;;;;;;1.93;1.30;;;23.30;49.90;;;;;;5009224;28;20476;-84
2021/05/15 06:10:50;;;;;;;1.83;0.97;;;23.30;49.70;;;;;;4991751;28;20268;-84
2021/05/15 06:13:18;;;;;;;2.07;1.20;;;23.30;49.90;;;;;;5008864;28;20651;-84
2021/05/15 06:15:44;;;;;;;2.20;1.43;;;23.10;49.80;;;;;;4990916;28;20427;-85
2021/05/15 06:18:10;;;;;;;1.80;1.20;;;23.30;50.00;;;;;;4991084;28;20443;-85
2021/05/15 06:20:36;;;;;;;1.73;1.23;;;23.30;50.00;;;;;;4991070;28;20463;-84
2021/05/15 06:23:02;;;;;;;4.37;1.67;;;23.30;49.90;;;;;;5008665;28;20655;-84
2021/05/15 06:25:33;;;;;;;1.23;0.90;;;23.30;49.80;;;;;;5008520;28;20752;-84
2021/05/15 06:27:59;;;;;;;1.30;1.00;;;23.30;49.70;;;;;;4991523;28;20439;-85
2021/05/15 06:30:25;;;;;;;2.10;1.23;;;23.30;49.80;;;;;;4990808;28;20507;-85
2021/05/15 06:32:51;;;;;;;1.20;1.00;;;23.30;49.60;;;;;;4992425;28;20176;-84
2021/05/15 06:35:17;;;;;;;1.80;1.20;;;23.30;49.60;;;;;;5009756;28;20229;-84
2021/05/15 06:37:43;;;;;;;1.70;1.10;;;23.30;49.60;;;;;;5008259;28;20920;-84
2021/05/15 06:40:09;;;;;;;1.83;1.33;;;23.40;49.70;;;;;;4991618;28;20507;-84
2021/05/15 06:42:36;;;;;;;1.40;1.10;;;23.30;49.60;;;;;;5008702;28;20170;-85
2021/05/15 06:45:03;;;;;;;1.43;1.03;;;23.30;49.60;;;;;;5008814;28;20435;-84
2021/05/15 06:47:29;;;;;;;2.10;1.27;;;23.30;49.60;;;;;;5008174;28;20493;-85
2021/05/15 06:49:54;;;;;;;2.03;1.10;;;23.30;49.70;;;;;;4992099;28;20440;-84
2021/05/15 06:52:21;;;;;;;1.10;0.80;;;23.40;49.80;;;;;;5010122;28;20193;-85
2021/05/15 06:54:46;;;;;;;1.20;1.00;;;23.30;49.70;;;;;;4992199;28;20495;-84
2021/05/15 06:57:13;;;;;;;0.80;0.60;;;23.40;49.70;;;;;;4992632;28;20177;-84
2021/05/15 06:59:38;;;;;;;1.80;0.97;;;23.40;49.70;;;;;;5009620;28;20204;-85
2021/05/15 07:02:04;;;;;;;2.70;1.20;;;23.40;49.80;;;;;;4991295;28;20511;-84
2021/05/15 07:04:30;;;;;;;1.70;1.10;;;23.40;49.70;;;;;;4990979;28;20244;-84
2021/05/15 07:06:56;;;;;;;3.63;1.10;;;23.40;49.70;;;;;;5008356;28;20409;-84
2021/05/15 07:09:22;;;;;;;2.60;1.30;;;23.40;49.80;;;;;;4991259;28;20180;-84
2021/05/15 07:11:50;;;;;;;4.43;1.30;;;23.40;50.30;;;;;;5007748;28;20423;-84
2021/05/15 07:14:17;;;;;;;1.43;0.80;;;23.40;49.80;;;;;;5007777;28;20196;-85
2021/05/15 07:16:43;;;;;;;3.10;1.10;;;23.40;49.80;;;;;;5007637;28;20419;-84
2021/05/15 07:19:09;;;;;;;1.47;0.90;;;23.40;49.80;;;;;;4990474;28;20456;-84
2021/05/15 07:21:35;;;;;;;3.27;1.17;;;23.40;49.80;;;;;;5007183;28;20411;-84
2021/05/15 07:24:02;;;;;;;1.77;1.10;;;23.40;49.80;;;;;;5007888;28;20439;-84
2021/05/15 07:26:28;;;;;;;1.40;1.10;;;23.40;49.80;;;;;;5007075;28;20404;-84
2021/05/15 07:28:54;;;;;;;1.27;0.73;;;23.40;49.80;;;;;;5007070;28;20522;-84
2021/05/15 07:31:20;;;;;;;1.40;1.00;;;23.40;49.80;;;;;;4989498;28;20412;-84
2021/05/15 07:33:46;;;;;;;1.37;1.00;;;23.40;49.80;;;;;;5007037;28;20169;-84
2021/05/15 07:36:12;;;;;;;1.57;0.80;;;23.40;49.80;;;;;;4990186;28;20232;-84
2021/05/15 07:38:39;;;;;;;2.10;0.97;;;23.40;49.80;;;;;;4990832;28;20177;-83
2021/05/15 07:41:06;;;;;;;2.33;1.27;;;23.40;49.80;;;;;;5014762;28;20231;-83
2021/05/15 07:43:32;;;;;;;1.70;1.03;;;23.40;49.70;;;;;;4990980;28;20922;-84
2021/05/15 07:45:59;;;;;;;3.67;1.30;;;23.40;49.90;;;;;;4989673;28;20483;-84
2021/05/15 07:48:37;;;;;;;1.53;0.97;;;23.40;49.80;;;;;;5006330;28;20177;-85
2021/05/15 07:51:10;;;;;;;2.03;1.03;;;23.40;49.70;;;;;;5007080;28;20404;-83
2021/05/15 07:53:36;;;;;;;1.30;1.03;;;23.40;49.80;;;;;;4989568;28;20483;-84
2021/05/15 07:56:03;;;;;;;1.30;1.00;;;23.40;49.90;;;;;;5006278;28;20499;-84
2021/05/15 07:58:29;;;;;;;2.00;1.00;;;23.40;49.90;;;;;;4989809;28;20423;-85
2021/05/15 08:00:55;;;;;;;1.43;1.13;;;23.40;49.80;;;;;;4991194;28;20451;-83
2021/05/15 08:03:21;;;;;;;1.57;1.00;;;23.40;49.80;;;;;;5007786;28;20416;-87
2021/05/15 08:05:47;;;;;;;1.87;1.00;;;23.40;49.80;;;;;;4988889;28;20980;-88
2021/05/15 08:08:13;;;;;;;1.53;1.10;;;23.40;49.80;;;;;;4988925;28;20173;-86
2021/05/15 08:10:39;;;;;;;1.70;1.13;;;23.40;50.00;;;;;;5007245;28;20527;-84
2021/05/15 08:13:05;;;;;;;2.13;1.00;;;23.40;49.80;;;;;;5006287;28;20496;-84
2021/05/15 08:15:31;;;;;;;2.90;0.93;;;23.40;50.00;;;;;;4989142;28;20204;-84
2021/05/15 08:17:57;;;;;;;2.70;0.90;;;23.40;50.40;;;;;;4997515;28;20241;-86
2021/05/15 08:20:25;;;;;;;1.80;1.07;;;23.40;49.90;;;;;;4986388;28;20464;-85
2021/05/15 08:22:51;;;;;;;1.57;1.10;;;23.40;49.90;;;;;;4989147;28;20452;-85
2021/05/15 08:25:19;;;;;;;1.37;1.00;;;23.40;49.40;;;;;;4988891;28;20420;-86
2021/05/15 08:27:49;;;;;;;2.07;1.13;;;23.40;49.00;;;;;;5006593;28;20488;-86
2021/05/15 08:30:18;;;;;;;2.50;1.17;;;23.40;48.90;;;;;;5007026;28;20412;-84
2021/05/15 08:32:45;;;;;;;2.13;1.00;;;23.30;48.90;;;;;;5007031;28;20437;-85
2021/05/15 08:35:14;;;;;;;3.20;1.20;;;23.30;48.90;;;;;;5006973;28;20404;-84
2021/05/15 08:37:44;;;;;;;1.73;0.80;;;23.30;48.60;;;;;;4989385;28;20412;-85
2021/05/15 08:40:10;;;;;;;0.93;0.73;;;23.30;48.60;;;;;;4989636;28;20868;-85
2021/05/15 08:42:39;;;;;;;1.40;1.03;;;23.30;48.50;;;;;;5007356;28;20400;-84
2021/05/15 08:45:06;;;;;;;3.90;1.17;;;23.20;48.40;;;;;;4990136;28;20420;-84
2021/05/15 08:47:33;;;;;;;3.00;1.00;;;23.30;48.40;;;;;;4989516;28;20446;-84
2021/05/15 08:50:01;;;;;;;2.37;1.20;;;23.30;48.40;;;;;;5006889;28;20544;-84
2021/05/15 08:52:27;;;;;;;2.23;1.17;;;23.30;48.70;;;;;;4990537;28;20511;-83
2021/05/15 08:54:53;;;;;;;1.37;0.80;;;23.30;48.50;;;;;;4990356;28;20451;-84
2021/05/15 08:57:19;;;;;;;1.13;0.80;;;23.30;48.70;;;;;;5007719;28;20413;-84
2021/05/15 08:59:50;;;;;;;1.80;1.03;;;23.30;49.00;;;;;;4989814;28;20499;-84
2021/05/15 09:02:20;;;;;;;2.50;1.10;;;23.30;49.00;;;;;;4993424;28;20432;-84
2021/05/15 09:04:48;;;;;;;1.00;0.80;;;23.30;48.90;;;;;;5010999;28;20408;-84
2021/05/15 09:07:14;;;;;;;2.23;1.10;;;23.30;49.10;;;;;;5010220;28;20465;-84
2021/05/15 09:09:40;;;;;;;2.13;0.90;;;23.30;49.40;;;;;;4992440;28;20455;-84
2021/05/15 09:12:06;;;;;;;1.53;1.43;;;23.30;49.40;;;;;;4991831;28;20263;-83
2021/05/15 09:14:36;;;;;;;1.53;1.00;;;23.30;49.50;;;;;;5021554;28;20732;-84
2021/05/15 09:17:02;;;;;;;1.10;1.00;;;23.30;49.30;;;;;;5008075;28;20460;-84
2021/05/15 09:19:29;;;;;;;1.37;0.80;;;23.30;49.30;;;;;;4990984;28;20546;-85
2021/05/15 09:22:00;;;;;;;1.47;1.00;;;23.30;49.50;;;;;;5024839;28;20194;-85
2021/05/15 09:24:34;;;;;;;1.53;1.10;;;23.30;49.20;;;;;;5005908;28;20411;-85
2021/05/15 09:27:02;;;;;;;1.60;0.90;;;23.30;49.20;;;;;;4987086;28;20798;-85
2021/05/15 09:29:48;;;;;;;1.33;0.90;;;23.30;49.20;;;;;;4987942;28;20479;-84
2021/05/15 09:32:28;;;;;;;1.53;0.90;;;23.30;49.20;;;;;;4987537;28;20827;-83
2021/05/15 09:34:55;;;;;;;2.07;1.63;;;23.30;49.40;;;;;;4987954;28;20412;-84
2021/05/15 09:37:40;;;;;;;1.00;0.80;;;23.30;49.40;;;;;;4987584;28;20416;-84
2021/05/15 09:40:25;;;;;;;1.40;0.80;;;23.30;49.20;;;;;;4987617;28;20456;-85
2021/05/15 09:42:59;;;;;;;2.50;1.07;;;23.30;49.30;;;;;;5005055;28;20895;-85
2021/05/15 09:45:33;;;;;;;2.27;0.83;;;23.30;49.30;;;;;;4990396;28;20463;-83
2021/05/15 09:48:04;;;;;;;1.93;0.90;;;23.30;50.00;;;;;;5010075;28;20423;-84
2021/05/15 09:50:32;;;;;;;3.77;0.90;;;23.30;49.30;;;;;;4992959;28;20443;-84
2021/05/15 09:53:23;;;;;;;0.93;0.73;;;23.30;49.50;;;;;;4992806;28;20454;-84
2021/05/15 09:55:54;;;;;;;0.97;0.80;;;23.30;49.30;;;;;;4992623;28;20412;-84
2021/05/15 09:58:19;;;;;;;1.50;1.00;;;23.30;49.40;;;;;;4992309;28;20447;-84
2021/05/15 10:00:47;;;;;;;1.30;0.90;;;23.30;49.50;;;;;;4991598;28;20460;-83
2021/05/15 10:03:22;;;;;;;1.40;0.87;;;23.30;49.50;;;;;;4992642;28;20204;-84
2021/05/15 10:06:05;;;;;;;0.80;0.60;;;23.30;49.50;;;;;;5010026;28;20416;-84
2021/05/15 10:08:33;;;;;;;1.50;1.00;;;23.30;49.40;;;;;;4992431;28;20416;-84
2021/05/15 10:11:00;;;;;;;1.00;0.80;;;23.30;49.50;;;;;;5010465;28;20400;-84
2021/05/15 10:13:26;;;;;;;2.20;1.17;;;23.30;49.50;;;;;;4992480;28;20523;-84
2021/05/15 10:15:52;;;;;;;1.33;0.80;;;23.30;49.50;;;;;;5010315;28;20412;-84
2021/05/15 10:18:18;;;;;;;1.40;1.00;;;23.30;49.80;;;;;;5010355;28;20436;-84
2021/05/15 10:20:46;;;;;;;1.53;0.97;;;23.40;49.60;;;;;;5010176;28;20448;-84
2021/05/15 10:23:21;;;;;;;1.00;0.70;;;23.30;49.50;;;;;;4993350;28;20431;-84
2021/05/15 10:25:48;;;;;;;1.00;0.80;;;23.30;49.40;;;;;;5011113;28;20392;-84
2021/05/15 10:28:30;;;;;;;1.83;1.10;;;23.30;49.50;;;;;;4993111;28;20443;-84
2021/05/15 10:31:14;;;;;;;1.30;0.83;;;23.40;49.50;;;;;;4992804;28;20420;-84
2021/05/15 10:33:47;;;;;;;1.10;0.80;;;23.40;49.70;;;;;;4992208;28;20423;-84
2021/05/15 10:36:27;;;;;;;1.00;0.90;;;23.30;49.50;;;;;;4992985;28;20416;-84
2021/05/15 10:38:54;;;;;;;0.90;0.70;;;23.40;49.50;;;;;;5011113;28;20503;-84
2021/05/15 10:41:25;;;;;;;1.10;0.80;;;23.30;49.60;;;;;;5011256;28;20409;-84
2021/05/15 10:43:52;;;;;;;1.40;0.80;;;23.30;49.40;;;;;;4992921;28;20592;-84
2021/05/15 10:46:25;;;;;;;0.90;0.70;;;23.30;49.50;;;;;;5009448;28;20421;-84
2021/05/15 10:48:55;;;;;;;1.17;0.90;;;23.50;49.60;;;;;;4992376;28;20427;-84
2021/05/15 10:51:47;;;;;;;1.47;0.97;;;23.30;49.70;;;;;;4992052;28;20424;-83
2021/05/15 10:54:15;;;;;;;1.10;0.80;;;23.40;49.50;;;;;;4991880;28;20414;-83
2021/05/15 10:56:41;;;;;;;2.03;0.80;;;23.30;49.60;;;;;;4991129;28;20416;-84
2021/05/15 10:59:10;;;;;;;1.00;0.80;;;23.30;49.80;;;;;;5008641;28;20435;-83
2021/05/15 11:02:12;;;;;;;1.20;0.80;;;23.40;49.60;;;;;;4991660;28;20412;-84
2021/05/15 11:04:54;;;;;;;1.20;0.83;;;23.40;49.50;;;;;;4994241;28;20467;-83
2021/05/15 11:07:22;;;;;;;1.20;0.80;;;23.40;49.60;;;;;;5010945;28;20439;-84
2021/05/15 11:09:54;;;;;;;1.07;0.80;;;23.30;49.50;;;;;;5011989;28;20427;-84
2021/05/15 11:12:21;;;;;;;1.17;0.80;;;23.40;49.50;;;;;;5011868;28;20499;-84
2021/05/15 11:14:49;;;;;;;1.87;0.93;;;23.40;49.50;;;;;;5008643;28;20427;-84
2021/05/15 11:17:26;;;;;;;1.00;0.63;;;23.40;49.70;;;;;;5009365;28;20475;-84
2021/05/15 11:19:57;;;;;;;2.67;0.90;;;23.40;49.50;;;;;;5005576;28;20459;-83
2021/05/15 11:22:40;;;;;;;1.10;0.70;;;23.40;49.60;;;;;;4991577;28;20424;-83
2021/05/15 11:25:19;;;;;;;1.00;0.70;;;23.40;49.50;;;;;;4991593;28;20420;-84
2021/05/15 11:27:59;;;;;;;1.57;0.90;;;23.40;49.50;;;;;;4990659;28;20427;-84
2021/05/15 11:30:58;;;;;;;1.77;1.07;;;23.40;49.60;;;;;;4991784;28;20419;-85
2021/05/15 11:33:26;;;;;;;1.70;0.80;;;23.40;49.60;;;;;;4985646;28;20439;-87
2021/05/15 11:35:57;;;;;;;1.40;0.73;;;23.30;49.60;;;;;;4990734;28;20881;-83
2021/05/15 11:38:24;;;;;;;1.40;0.80;;;23.40;49.70;;;;;;4992076;28;20434;-83
2021/05/15 11:40:49;;;;;;;1.20;0.70;;;23.30;49.60;;;;;;4991117;28;20531;-84
2021/05/15 11:43:23;;;;;;;1.20;0.70;;;23.30;49.90;;;;;;4990238;28;20428;-84
2021/05/15 11:45:50;;;;;;;1.00;0.70;;;23.40;49.70;;;;;;4989679;28;20271;-84
2021/05/15 11:48:28;;;;;;;2.50;0.80;;;23.40;49.70;;;;;;5008021;28;20435;-84
2021/05/15 11:50:58;;;;;;;1.00;0.90;;;23.40;49.60;;;;;;4989063;28;20456;-84
2021/05/15 11:53:24;;;;;;;1.57;1.00;;;23.40;49.90;;;;;;4989532;28;20432;-84
2021/05/15 11:55:51;;;;;;;1.00;0.70;;;23.30;49.70;;;;;;5005867;28;20432;-83
2021/05/15 11:58:17;;;;;;;1.00;0.70;;;23.30;49.80;;;;;;5006491;28;20444;-84
2021/05/15 12:00:43;;;;;;;2.07;0.90;;;23.30;49.90;;;;;;4988632;28;20466;-84
2021/05/15 12:03:10;;;;;;;1.40;0.93;;;23.40;49.90;;;;;;4988726;28;20420;-84
2021/05/15 12:05:36;;;;;;;1.90;0.80;;;23.20;49.70;;;;;;4988664;28;20424;-84
2021/05/15 12:08:12;;;;;;;1.30;0.90;;;23.40;49.90;;;;;;5006210;28;20420;-85
2021/05/15 12:10:40;;;;;;;1.60;1.10;;;23.40;49.80;;;;;;4988183;28;20416;-85
2021/05/15 12:13:06;;;;;;;2.33;1.30;;;23.40;49.80;;;;;;5002251;28;20946;-84
2021/05/15 12:15:32;;;;;;;4.00;1.63;;;23.40;49.90;;;;;;4988861;28;20443;-84
2021/05/15 12:18:00;;;;;;;2.30;1.20;;;23.40;49.80;;;;;;5005764;28;20474;-84
2021/05/15 12:20:29;;;;;;;2.17;1.00;;;23.40;49.80;;;;;;4988347;28;20491;-84
2021/05/15 12:23:11;;;;;;;1.60;0.97;;;23.40;50.00;;;;;;4981032;28;20437;-83
2021/05/15 12:25:40;;;;;;;3.13;1.20;;;23.40;49.80;;;;;;4991384;28;20426;-84
2021/05/15 12:28:23;;;;;;;2.27;1.20;;;23.40;49.80;;;;;;4999103;28;20436;-83
2021/05/15 12:30:50;;;;;;;2.30;1.40;;;23.40;49.80;;;;;;5005789;28;20395;-84
2021/05/15 12:33:22;;;;;;;1.80;1.30;;;23.40;49.80;;;;;;4995238;28;20435;-84
2021/05/15 12:36:03;;;;;;;1.87;1.43;;;23.40;49.90;;;;;;5007369;28;20412;-84
2021/05/15 12:38:31;;;;;;;2.33;1.30;;;23.40;49.80;;;;;;5008829;28;20510;-84
2021/05/15 12:41:16;;;;;;;2.90;1.90;;;23.40;49.90;;;;;;5008302;28;20467;-84
2021/05/15 12:43:45;;;;;;;3.90;1.53;;;23.40;49.80;;;;;;5003612;28;20423;-83
2021/05/15 12:46:17;;;;;;;3.00;1.47;;;23.40;49.80;;;;;;5009959;28;20427;-84
2021/05/15 12:48:54;;;;;;;2.30;1.40;;;23.40;49.90;;;;;;5009434;28;20404;-83
2021/05/15 12:51:36;;;;;;;2.90;1.40;;;23.40;49.80;;;;;;4992860;28;20423;-84
2021/05/15 12:54:21;;;;;;;5.13;2.00;;;23.40;49.80;;;;;;5009747;28;20465;-84
2021/05/15 12:56:58;;;;;;;2.90;1.67;;;23.30;49.70;;;;;;5009181;28;20404;-84
2021/05/15 12:59:28;;;;;;;2.37;1.30;;;23.40;49.80;;;;;;4991782;28;20466;-84
2021/05/15 13:02:04;;;;;;;2.80;1.70;;;23.40;50.00;;;;;;4992545;28;20427;-84
2021/05/15 13:04:30;;;;;;;2.60;1.40;;;23.30;49.80;;;;;;4977506;28;20420;-84
2021/05/15 13:06:55;;;;;;;3.83;1.43;;;23.40;50.10;;;;;;4992082;28;20427;-84
2021/05/15 13:09:27;;;;;;;2.10;1.60;;;23.40;50.00;;;;;;4992303;28;20224;-84